IGO691 VOTV-VOBL
Flight info
| Callsign | IGO691 |
|---|---|
| Flight time | N/A |
| Altitude | 37000 |
| Route | RAMPU CCB W43 UGABA UGABA7F |
| Aircraft | A20N/M-SDE2E3FGHIRWXY/LB1 |
Departure
| Time | 2026-04-16 06:55 |
|---|---|
| Airport | Thiruvananthapuram International Airport (VOTV) |
Arrival
| Time | N/A |
|---|---|
| Airport | Kempegowda International Airport Bengaluru (VOBL) |
| Time | Latitude | Longitude | Altitude | Speed | Heading |
|---|---|---|---|---|---|
| 2026-04-16 06:48 | 8.47837 | 76.92126 | 31 ft | 0 kts | 186° |
| 2026-04-16 06:51 | 8.47849 | 76.92127 | 32 ft | 2 kts | 186° |
| 2026-04-16 06:52 | 8.47866 | 76.92129 | 32 ft | 2 kts | 185° |
| 2026-04-16 06:52 | 8.47882 | 76.92130 | 33 ft | 2 kts | 179° |
| 2026-04-16 06:52 | 8.47898 | 76.92127 | 33 ft | 2 kts | 114° |
| 2026-04-16 06:52 | 8.47901 | 76.92120 | 29 ft | 0 kts | 96° |
| 2026-04-16 06:53 | 8.47900 | 76.92123 | 29 ft | 2 kts | 96° |
| 2026-04-16 06:53 | 8.47898 | 76.92147 | 31 ft | 5 kts | 96° |
| 2026-04-16 06:54 | 8.47893 | 76.92191 | 34 ft | 8 kts | 96° |
| 2026-04-16 06:54 | 8.47885 | 76.92257 | 34 ft | 11 kts | 97° |
| 2026-04-16 06:54 | 8.47926 | 76.92275 | 33 ft | 9 kts | 322° |
| 2026-04-16 06:54 | 8.47981 | 76.92220 | 34 ft | 18 kts | 316° |
| 2026-04-16 06:55 | 8.48244 | 76.91962 | 33 ft | 86 kts | 316° |
| 2026-04-16 06:55 | 8.48811 | 76.91409 | 35 ft | 138 kts | 316° |
| 2026-04-16 06:55 | 8.49311 | 76.90927 | 86 ft | 160 kts | 318° |
| 2026-04-16 06:55 | 8.50406 | 76.89922 | 870 ft | 167 kts | 320° |
| 2026-04-16 06:56 | 8.51066 | 76.89525 | 1313 ft | 166 kts | 334° |
| 2026-04-16 06:56 | 8.52160 | 76.89124 | 1874 ft | 172 kts | 341° |
| 2026-04-16 06:56 | 8.53356 | 76.88714 | 2236 ft | 191 kts | 339° |
| 2026-04-16 06:56 | 8.54651 | 76.88193 | 2567 ft | 211 kts | 339° |
| 2026-04-16 06:57 | 8.56167 | 76.87798 | 2887 ft | 237 kts | 354° |
| 2026-04-16 06:57 | 8.57878 | 76.87768 | 3387 ft | 259 kts | 1° |
| 2026-04-16 06:57 | 8.60339 | 76.87771 | 4425 ft | 270 kts | 1° |
| 2026-04-16 06:57 | 8.61596 | 76.87761 | 5035 ft | 273 kts | 1° |
| 2026-04-16 06:58 | 8.63521 | 76.87735 | 5975 ft | 276 kts | 2° |
| 2026-04-16 06:58 | 8.65440 | 76.87709 | 6483 ft | 281 kts | 2° |
| 2026-04-16 06:58 | 8.67400 | 76.87684 | 6719 ft | 280 kts | 2° |
| 2026-04-16 06:58 | 8.69346 | 76.87740 | 6825 ft | 279 kts | 11° |
| 2026-04-16 06:59 | 8.71206 | 76.88276 | 6858 ft | 278 kts | 27° |
| 2026-04-16 06:59 | 8.72885 | 76.89221 | 6852 ft | 275 kts | 32° |
| 2026-04-16 06:59 | 8.74522 | 76.90186 | 6857 ft | 275 kts | 32° |
| 2026-04-16 06:59 | 8.76185 | 76.91157 | 6853 ft | 275 kts | 32° |
| 2026-04-16 07:00 | 8.77845 | 76.92119 | 6858 ft | 275 kts | 32° |
| 2026-04-16 07:00 | 8.79513 | 76.93084 | 6857 ft | 275 kts | 32° |
| 2026-04-16 07:00 | 8.81179 | 76.94048 | 6854 ft | 277 kts | 32° |
| 2026-04-16 07:01 | 8.84494 | 76.95966 | 6900 ft | 277 kts | 32° |
| 2026-04-16 07:01 | 8.86181 | 76.96945 | 7347 ft | 279 kts | 32° |
| 2026-04-16 07:01 | 8.87866 | 76.97923 | 8308 ft | 276 kts | 32° |
| 2026-04-16 07:01 | 8.89543 | 76.98881 | 9263 ft | 279 kts | 28° |
| 2026-04-16 07:02 | 8.91443 | 76.99366 | 10111 ft | 290 kts | 8° |
| 2026-04-16 07:02 | 8.93534 | 76.99463 | 10509 ft | 312 kts | 5° |
| 2026-04-16 07:02 | 8.95796 | 76.99520 | 10752 ft | 335 kts | 5° |
| 2026-04-16 07:02 | 8.98141 | 76.99562 | 11273 ft | 345 kts | 4° |
| 2026-04-16 07:03 | 9.00557 | 76.99607 | 11988 ft | 350 kts | 4° |
| 2026-04-16 07:03 | 9.03020 | 76.99660 | 12687 ft | 356 kts | 4° |
| 2026-04-16 07:03 | 9.05506 | 76.99721 | 13412 ft | 360 kts | 4° |